FW1094 Weather Reports


Display with metric or nautical units.
time (UTC)temp
F
wind
direction
speed
MPH
gust
MPH
rain 1hr
in
rain 24hr
in
rain mn
in
humidity
%
barometer
mb
20181214003304 19 203 0.0 1.0 0.00 0.00 0.00 63 1024.4
20181214002205 19 113 2.0 6.0 0.00 0.00 0.00 63 1024.0
20181214001104 20 90 2.0 5.0 0.00 0.00 0.00 61 1024.4
20181214000005 20 315 3.0 4.0 0.00 0.00 0.00 61 1024.0
20181213234904 20 113 2.0 6.0 0.00 0.00 0.00 61 1024.0
20181213233804 21 45 5.0 5.0 0.00 0.00 0.00 61 1023.7
20181213232704 21 23 8.0 8.0 0.00 0.00 0.00 59 1023.7
20181213231604 22 113 2.0 6.0 0.00 0.00 0.00 58 1023.4
20181213230504 23 23 5.0 5.0 0.00 0.00 0.00 55 1023.4
20181213225404 23 113 1.0 6.0 0.00 0.00 0.00 55 1023.4
20181213224304 25 68 4.0 7.0 0.00 0.00 0.00 55 1023.4
20181213223204 26 68 2.0 6.0 0.00 0.00 0.00 54 1023.0
20181213222105 26 113 2.0 5.0 0.00 0.00 0.00 54 1023.0
20181213221004 27 293 4.0 6.0 0.00 0.00 0.00 51 1023.0
20181213215904 27 23 7.0 7.0 0.00 0.00 0.00 50 1022.7
20181213214804 28 90 5.0 7.0 0.00 0.00 0.00 49 1023.0
20181213213704 29 0 3.0 4.0 0.00 0.00 0.00 44 1023.0
20181213212604 29 90 2.0 4.0 0.00 0.00 0.00 40 1023.0
20181213211604 31 68 3.0 4.0 0.00 0.00 0.00 39 1023.0
20181213210504 30 90 0.0 0.0 0.00 0.00 0.00 40 1023.0
20181213205408 30 0 1.0 4.0 0.00 0.00 0.00 37 1023.0
20181213204314 30 315 2.0 4.0 0.00 0.00 0.00 37 1023.0
20181213203310 31 338 2.0 4.0 0.00 0.00 0.00 37 1023.0
20181213202207 31 270 2.0 5.0 0.00 0.00 0.00 35 1023.0
20181213201205 30 293 1.0 4.0 0.00 0.00 0.00 40 1023.0
20181213200104 31 315 3.0 5.0 0.00 0.00 0.00 40 1023.0
20181213195005 31 293 3.0 4.0 0.00 0.00 0.00 40 1023.0
20181213193904 31 338 4.0 6.0 0.00 0.00 0.00 40 1023.0
20181213192805 31 23 2.0 5.0 0.00 0.00 0.00 43 1023.0
20181213191804 32 0 3.0 6.0 0.00 0.00 0.00 45 1023.0
20181213190704 33 293 4.0 4.0 0.00 0.00 0.00 35 1023.0
20181213185604 32 270 3.0 6.0 0.00 0.00 0.00 35 1023.0
20181213184504 31 225 2.0 7.0 0.00 0.00 0.00 37 1023.0
20181213183404 30 180 5.0 6.0 0.00 0.00 0.00 40 1023.0
20181213182304 29 270 2.0 5.0 0.00 0.00 0.00 41 1023.0
20181213181204 29 225 2.0 7.0 0.00 0.00 0.00 45 1023.0
20181213180104 28 180 3.0 9.0 0.00 0.00 0.00 46 1023.4
20181213175004 28 225 4.0 5.0 0.00 0.00 0.00 45 1023.4
20181213173904 27 203 6.0 6.0 0.00 0.00 0.00 49 1023.4
20181213172805 26 225 2.0 8.0 0.00 0.00 0.00 51 1023.0
20181213171704 25 270 5.0 8.0 0.00 0.00 0.00 53 1023.4
20181213170604 24 225 2.0 7.0 0.00 0.00 0.00 55 1023.4
20181213165504 22 203 0.0 0.0 0.00 0.00 0.00 58 1023.4
20181213164404 19 225 0.0 0.0 0.00 0.00 0.00 61 1023.4
20181213163403 18 45 0.0 3.0 0.00 0.00 0.00 63 1023.0
20181213162304 16 135 1.0 4.0 0.00 0.00 0.00 69 1023.4
20181213161204 17 68 5.0 6.0 0.00 0.00 0.00 65 1023.4
20181213160104 15 45 2.0 6.0 0.00 0.00 0.00 70 1023.0
20181213155004 14 113 0.0 5.0 0.00 0.00 0.00 71 1023.4
20181213153904 12 90 5.0 8.0 0.00 0.00 0.00 75 1023.0
20181213152804 9 45 2.0 4.0 0.00 0.00 0.00 81 1023.4
20181213151704 8 45 1.0 5.0 0.00 0.00 0.00 81 1023.4
20181213150604 5 45 0.0 0.0 0.00 0.00 0.00 86 1023.0
20181213145504 4 68 0.0 0.0 0.00 0.00 0.00 85 1022.7
20181213144404 4 113 0.0 0.0 0.00 0.00 0.00 85 1022.7
20181213143304 4 68 0.0 0.0 0.00 0.00 0.00 85 1022.7
20181213142105 3 68 0.0 0.0 0.00 0.00 0.00 85 1022.7
20181213140504 4 45 0.0 0.0 0.00 0.00 0.00 85 1022.7
20181213135304 4 45 0.0 0.0 0.00 0.00 0.00 85 1022.7
20181213134004 4 68 0.0 0.0 0.00 0.00 0.00 83 1022.7
20181213132705 5 90 0.0 0.0 0.00 0.00 0.00 83 1022.7
20181213131604 5 68 0.0 0.0 0.00 0.00 0.00 83 1022.7
20181213130504 6 68 0.0 0.0 0.00 0.00 0.00 83 1022.7
20181213125405 6 158 0.0 0.0 0.00 0.00 0.00 83 1022.7
20181213124304 5 68 0.0 0.0 0.00 0.00 0.00 81 1022.4
20181213123204 6 45 0.0 0.0 0.00 0.00 0.00 81 1022.0
20181213122104 7 293 0.0 0.0 0.00 0.00 0.00 80 1022.0
20181213121004 7 338 0.0 0.0 0.00 0.00 0.00 78 1022.4
20181213115904 9 338 0.0 0.0 0.00 0.00 0.00 76 1022.4
20181213114805 10 338 0.0 2.0 0.00 0.00 0.00 75 1022.4
20181213113704 12 315 0.0 0.0 0.00 0.00 0.00 74 1022.4
20181213112604 13 270 3.0 3.0 0.00 0.00 0.00 71 1022.4
20181213111504 13 293 3.0 4.0 0.00 0.00 0.00 71 1022.0
20181213110404 13 338 5.0 7.0 0.00 0.00 0.00 73 1022.0
20181213105204 13 293 1.0 5.0 0.00 0.00 0.00 73 1021.7
20181213104104 13 315 4.0 6.0 0.00 0.00 0.00 73 1021.7
20181213103006 14 248 4.0 9.0 0.00 0.00 0.00 74 1021.7
20181213101804 14 248 3.0 5.0 0.00 0.00 0.00 74 1021.3
20181213100704 14 315 10.0 10.0 0.00 0.00 0.00 74 1021.3
20181213095604 15 225 4.0 9.0 0.00 0.00 0.00 74 1021.3
20181213094504 15 270 6.0 10.0 0.00 0.00 0.00 75 1021.0
20181213093404 15 23 3.0 8.0 0.00 0.00 0.00 75 1021.0
20181213092306 16 23 3.0 12.0 0.00 0.00 0.00 75 1021.3
20181213091204 16 293 5.0 8.0 0.00 0.00 0.00 76 1021.0
20181213090104 16 113 6.0 11.0 0.00 0.00 0.00 78 1020.7
20181213085005 17 248 8.0 12.0 0.00 0.00 0.00 78 1020.3
20181213083904 17 338 7.0 12.0 0.00 0.00 0.00 79 1020.3
20181213082804 17 270 2.0 9.0 0.00 0.00 0.00 80 1020.0
20181213081705 17 225 10.0 11.0 0.00 0.00 0.00 81 1020.0
20181213080605 17 270 13.0 13.0 0.00 0.00 0.00 81 1019.6
20181213075504 17 338 9.0 13.0 0.00 0.00 0.00 83 1019.3
20181213074404 17 338 7.0 15.0 0.00 0.00 0.00 83 1019.0
20181213073305 17 293 11.0 13.0 0.00 0.00 0.00 85 1019.0
20181213072204 17 338 9.0 16.0 0.00 0.00 0.00 85 1018.6
20181213071104 17 180 4.0 12.0 0.00 0.00 0.00 85 1019.0
20181213070005 16 315 7.0 12.0 0.00 0.00 0.00 86 1018.6
20181213065204 16 270 9.0 9.0 0.00 0.00 0.00 86 1018.6
20181213064104 16 293 8.0 10.0 0.00 0.00 0.00 86 1018.3
20181213063004 17 338 4.0 12.0 0.00 0.00 0.00 86 1018.3
20181213061905 17 338 6.0 13.0 0.00 0.00 0.00 86 1017.9
20181213060804 17 270 11.0 13.0 0.00 0.00 0.00 86 1017.6
20181213055704 17 203 6.0 15.0 0.00 0.00 0.00 86 1017.6
20181213054604 18 315 5.0 8.0 0.00 0.00 0.00 88 1017.6
20181213053504 18 338 4.0 9.0 0.00 0.00 0.00 88 1017.6
20181213052404 19 315 8.0 8.0 0.00 0.00 0.00 88 1017.6
20181213051304 19 270 6.0 10.0 0.00 0.00 0.00 88 1017.3
20181213050205 20 315 8.0 10.0 0.00 0.00 0.00 88 1017.6
20181213045104 21 0 11.0 12.0 0.00 0.00 0.00 88 1017.6
20181213044005 21 293 8.0 8.0 0.00 0.00 0.00 88 1017.6
20181213042904 21 315 4.0 11.0 0.00 0.00 0.00 88 1017.3
20181213041804 21 338 4.0 12.0 0.00 0.00 0.00 88 1017.3
20181213040704 21 0 4.0 17.0 0.00 0.00 0.00 88 1016.6
20181213035605 22 338 6.0 12.0 0.00 0.00 0.00 88 1016.6
20181213034504 22 315 5.0 13.0 0.00 0.00 0.00 86 1016.3
20181213033404 22 270 12.0 15.0 0.00 0.00 0.00 86 1016.3
20181213032304 23 293 11.0 17.0 0.00 0.00 0.00 83 1015.9
20181213031205 24 315 6.0 15.0 0.00 0.00 0.00 81 1015.9
20181213030105 24 203 7.0 9.0 0.00 0.00 0.00 79 1015.6
20181213025004 25 293 5.0 12.0 0.00 0.00 0.00 75 1015.6
20181213023904 25 203 5.0 9.0 0.00 0.00 0.00 71 1015.6
20181213022804 25 270 4.0 8.0 0.00 0.00 0.00 70 1015.2
20181213021705 25 293 5.0 8.0 0.00 0.00 0.00 70 1015.2
20181213020605 25 45 3.0 5.0 0.00 0.00 0.00 71 1015.2
20181213015604 25 315 1.0 2.0 0.00 0.00 0.00 73 1015.2
20181213014504 25 248 0.0 2.0 0.00 0.00 0.00 73 1015.2
20181213013405 25 248 0.0 4.0 0.00 0.00 0.00 73 1014.9
20181213012304 25 315 3.0 5.0 0.00 0.00 0.00 73 1014.9
20181213011205 25 270 3.0 6.0 0.00 0.00 0.00 73 1014.9
20181213010104 25 225 4.0 8.0 0.00 0.00 0.00 73 1014.6
20181213005104 25 315 6.0 9.0 0.00 0.00 0.00 73 1014.2
20181213004005 25 293 5.0 11.0 0.00 0.00 0.00 74 1014.2